Weather History for Eureka Airport, NV

Change the Weather History Date:

Thursday, November 7, 2013

  Actual Average Record
Temperature  
Mean Temperature 7 °C -  
Max Temperature 15 °C - - ()
Min Temperature -1 °C - - ()
Degree Days  
Heating Degree Days 20    
Moisture  
Dew Point -4 °C    
Average Humidity 57    
Maximum Humidity 80    
Minimum Humidity 29    
Precipitation  
Precipitation 0.00 mm - - ()
Sea Level Pressure  
Sea Level Pressure 1025 hPa    
Wind  
Wind Speed 10 km/h (SSW)    
Max Wind Speed 16 km/h    
Max Gust Speed -    
Visibility 16 kilometers    
Events      
T = Trace of Precipitation, MM = Missing Value Source: NWS Daily Summary

Daily Weather History Graph

Daily Weather History Graph

Search for Another Location

Airport:

Trip Planner

Search our weather history database for the weather conditions in past years. The results will help you decide how hot, cold, wet, or windy it might be!

Date:

Astronomy

Nov. 07, 2013 Rise Set
Actual Time 6:19 AM PST 4:35 PM PST
Civil Twilight 5:51 AM PST 5:03 PM PST
Nautical Twilight 5:19 AM PST 5:35 PM PST
Astronomical Twilight 4:47 AM PST 6:07 PM PST
Moon 10:31 AM PST (11/7) 8:52 PM PST (11/7)
Length of Visible Light 11h 12m
Length of Day
10h 15m
Waxing Crescent, 24% of the Moon is Illuminated
Nov 7
Waxing Crescent
Nov 9
First Quarter
Nov 17
Full
Nov 25
Last Quarter
Dec 2
New

Hourly Weather History & Observations

Time (PST) Temp. Windchill Dew Point Humidity Pressure Visibility Wind Dir Wind Speed Gust Speed Precip Events Conditions
12:15 AM 0.0 °C -4.0 °C -4.0 °C 75% 1028.7 hPa 16.1 km SSW 13.0 km/h / 3.6 m/s - N/A   Clear
12:35 AM 0.0 °C -3.6 °C -4.0 °C 75% 1028.7 hPa 16.1 km SSW 11.1 km/h / 3.1 m/s - N/A   Clear
12:55 AM 0.0 °C -3.6 °C -4.0 °C 75% 1028.7 hPa 16.1 km SSW 11.1 km/h / 3.1 m/s - N/A   Clear
1:15 AM 0.0 °C -3.6 °C -4.0 °C 75% 1028.7 hPa 16.1 km SW 11.1 km/h / 3.1 m/s - N/A   Clear
1:35 AM -1.0 °C -4.8 °C -4.0 °C 80% 1028.3 hPa 16.1 km SW 11.1 km/h / 3.1 m/s - N/A   Clear
1:55 AM -1.0 °C -5.2 °C -4.0 °C 80% 1028.3 hPa 16.1 km SW 13.0 km/h / 3.6 m/s - N/A   Clear
2:15 AM -1.0 °C -4.3 °C -4.0 °C 80% 1028.3 hPa 16.1 km SW 9.3 km/h / 2.6 m/s - N/A   Clear
2:35 AM 0.0 °C -2.5 °C -4.0 °C 75% 1028.3 hPa 16.1 km SW 7.4 km/h / 2.1 m/s - N/A   Clear
2:55 AM 0.0 °C -4.0 °C -4.0 °C 75% 1028.3 hPa 16.1 km SSW 13.0 km/h / 3.6 m/s - N/A   Clear
3:15 AM 0.0 °C -3.1 °C -4.0 °C 75% 1028.7 hPa 16.1 km South 9.3 km/h / 2.6 m/s - N/A   Clear
3:35 AM 0.0 °C -4.0 °C -4.0 °C 75% 1028.7 hPa 16.1 km SSW 13.0 km/h / 3.6 m/s - N/A   Clear
3:55 AM 0.0 °C -4.4 °C -4.0 °C 75% 1028.3 hPa 16.1 km SW 14.8 km/h / 4.1 m/s - N/A   Clear
4:15 AM 0.0 °C -3.1 °C -4.0 °C 75% 1028.3 hPa 16.1 km SW 9.3 km/h / 2.6 m/s - N/A   Clear
4:35 AM 0.0 °C -3.1 °C -4.0 °C 75% 1028.0 hPa 16.1 km SW 9.3 km/h / 2.6 m/s - N/A   Clear
4:55 AM 0.0 °C -4.0 °C -4.0 °C 75% 1028.0 hPa 16.1 km SW 13.0 km/h / 3.6 m/s - N/A   Clear
5:15 AM 0.0 °C -4.4 °C -4.0 °C 75% 1028.0 hPa 16.1 km SW 14.8 km/h / 4.1 m/s - N/A   Clear
5:35 AM 0.0 °C -3.6 °C -4.0 °C 75% 1027.7 hPa 16.1 km SSW 11.1 km/h / 3.1 m/s - N/A   Scattered Clouds
5:55 AM 0.0 °C -3.6 °C -4.0 °C 75% 1027.7 hPa 16.1 km South 11.1 km/h / 3.1 m/s - N/A   Overcast
6:15 AM 0.0 °C -3.6 °C -4.0 °C 75% 1027.3 hPa 16.1 km SW 11.1 km/h / 3.1 m/s - N/A   Overcast
6:35 AM 0.0 °C -3.1 °C -3.0 °C 80% 1027.3 hPa 16.1 km SW 9.3 km/h / 2.6 m/s - N/A   Overcast
6:55 AM 1.0 °C -1.9 °C -3.0 °C 75% 1027.0 hPa 16.1 km SSW 9.3 km/h / 2.6 m/s - N/A   Scattered Clouds
7:15 AM 2.0 °C -1.5 °C -3.0 °C 70% 1027.3 hPa 16.1 km SW 13.0 km/h / 3.6 m/s - N/A   Clear
7:35 AM 3.0 °C -0.7 °C -3.0 °C 65% 1027.3 hPa 16.1 km SW 14.8 km/h / 4.1 m/s - N/A   Clear
7:55 AM 3.0 °C -0.3 °C -3.0 °C 65% 1027.0 hPa 16.1 km SSW 13.0 km/h / 3.6 m/s - N/A   Clear
8:15 AM 3.0 °C -1.0 °C -3.0 °C 65% 1027.0 hPa 16.1 km SW 16.7 km/h / 4.6 m/s - N/A   Clear
8:35 AM 4.0 °C 1.7 °C -3.0 °C 61% 1027.0 hPa 16.1 km WSW 9.3 km/h / 2.6 m/s - N/A   Clear
8:55 AM 5.0 °C - -2.0 °C 61% 1027.0 hPa 16.1 km Calm Calm - N/A   Clear
9:15 AM 7.0 °C - -2.0 °C 53% 1027.0 hPa 16.1 km Calm Calm - N/A   Clear
9:35 AM 7.0 °C 4.9 °C -2.0 °C 53% 1027.0 hPa 16.1 km East 11.1 km/h / 3.1 m/s - N/A   Clear
9:55 AM 8.0 °C 6.1 °C -3.0 °C 46% 1027.0 hPa 16.1 km East 11.1 km/h / 3.1 m/s - N/A   Clear
10:15 AM 8.0 °C 6.4 °C -3.0 °C 46% 1027.0 hPa 16.1 km East 9.3 km/h / 2.6 m/s - N/A   Clear
10:35 AM 9.0 °C - -2.0 °C 46% 1026.3 hPa 16.1 km SE 9.3 km/h / 2.6 m/s - N/A   Clear
10:55 AM 10.0 °C - -2.0 °C 43% 1025.6 hPa 16.1 km ESE 9.3 km/h / 2.6 m/s - N/A   Clear
11:15 AM 10.0 °C - -3.0 °C 40% 1025.6 hPa 16.1 km West 7.4 km/h / 2.1 m/s - N/A   Clear
11:35 AM 11.0 °C - -4.0 °C 35% 1025.3 hPa 16.1 km West 9.3 km/h / 2.6 m/s - N/A   Clear
11:55 AM 12.0 °C - -3.0 °C 35% 1024.6 hPa 16.1 km West 7.4 km/h / 2.1 m/s - N/A   Clear
12:15 PM 13.0 °C - -4.0 °C 31% 1024.3 hPa 16.1 km WSW 7.4 km/h / 2.1 m/s - N/A   Clear
12:35 PM 13.0 °C - -5.0 °C 29% 1023.9 hPa 16.1 km Calm Calm - N/A   Clear
12:55 PM 14.0 °C - -4.0 °C 29% 1023.6 hPa 16.1 km Calm Calm - N/A   Clear
1:15 PM 14.0 °C - -4.0 °C 29% 1022.9 hPa 16.1 km South 5.6 km/h / 1.5 m/s - N/A   Clear
1:35 PM 14.0 °C - -4.0 °C 29% 1022.9 hPa 16.1 km WSW 5.6 km/h / 1.5 m/s - N/A   Clear
1:55 PM 14.0 °C - -4.0 °C 29% 1022.6 hPa 16.1 km WSW 7.4 km/h / 2.1 m/s - N/A   Clear
2:15 PM 14.0 °C - -4.0 °C 29% 1022.6 hPa 16.1 km Calm Calm - N/A   Clear
2:35 PM 14.0 °C - -3.0 °C 31% 1022.2 hPa 16.1 km Calm Calm - N/A   Clear
2:55 PM 15.0 °C - -3.0 °C 29% 1022.2 hPa 16.1 km Calm Calm - N/A   Clear
3:15 PM 14.0 °C - -4.0 °C 29% 1021.9 hPa 16.1 km South 9.3 km/h / 2.6 m/s - N/A   Clear
3:35 PM 14.0 °C - -4.0 °C 29% 1021.6 hPa 16.1 km SSE 16.7 km/h / 4.6 m/s - N/A   Clear
3:55 PM 12.0 °C - -4.0 °C 33% 1021.2 hPa 16.1 km SSE 16.7 km/h / 4.6 m/s - N/A   Clear
4:15 PM 11.0 °C - -4.0 °C 35% 1021.2 hPa 16.1 km SE 7.4 km/h / 2.1 m/s - N/A   Clear
4:35 PM 9.0 °C - -4.0 °C 40% 1021.6 hPa 16.1 km South 7.4 km/h / 2.1 m/s - N/A   Clear
4:55 PM 8.0 °C 6.4 °C -4.0 °C 43% 1021.6 hPa 16.1 km South 9.3 km/h / 2.6 m/s - N/A   Clear
5:15 PM 8.0 °C 5.8 °C -4.0 °C 43% 1021.6 hPa 16.1 km South 13.0 km/h / 3.6 m/s - N/A   Clear
5:35 PM 7.0 °C 4.0 °C -4.0 °C 46% 1021.6 hPa 16.1 km South 16.7 km/h / 4.6 m/s - N/A   Clear
5:55 PM 6.0 °C 3.3 °C -4.0 °C 49% 1021.6 hPa 16.1 km SE 13.0 km/h / 3.6 m/s - N/A   Clear
6:15 PM 5.0 °C 1.8 °C -4.0 °C 53% 1021.6 hPa 16.1 km SSE 14.8 km/h / 4.1 m/s - N/A   Clear
6:35 PM 6.0 °C 3.3 °C -4.0 °C 49% 1021.6 hPa 16.1 km South 13.0 km/h / 3.6 m/s - N/A   Clear
6:55 PM 4.0 °C 1.2 °C -4.0 °C 56% 1021.2 hPa 16.1 km SSW 11.1 km/h / 3.1 m/s - N/A   Clear
7:15 PM 5.0 °C 3.9 °C -4.0 °C 53% 1021.2 hPa 16.1 km SSW 5.6 km/h / 1.5 m/s - N/A   Clear
7:35 PM 3.0 °C - -4.0 °C 60% 1021.6 hPa 16.1 km Calm Calm - N/A   Clear
7:55 PM 2.0 °C - -4.0 °C 65% 1021.9 hPa 16.1 km Calm Calm - N/A   Clear
8:15 PM 1.0 °C -2.4 °C -5.0 °C 65% 1021.6 hPa 16.1 km SSW 11.1 km/h / 3.1 m/s - N/A   Clear
8:35 PM 0.0 °C -4.7 °C -5.0 °C 69% 1021.6 hPa 16.1 km SSW 16.7 km/h / 4.6 m/s - N/A   Clear
8:55 PM 2.0 °C -2.2 °C -5.0 °C 60% 1021.6 hPa 16.1 km SSW 16.7 km/h / 4.6 m/s - N/A   Clear
9:15 PM 2.0 °C -1.9 °C -5.0 °C 60% 1021.9 hPa 16.1 km SSW 14.8 km/h / 4.1 m/s - N/A   Clear
9:35 PM 2.0 °C -2.2 °C -5.0 °C 60% 1021.6 hPa 16.1 km SSW 16.7 km/h / 4.6 m/s - N/A   Clear
9:55 PM 2.0 °C -1.5 °C -5.0 °C 60% 1021.9 hPa 16.1 km SW 13.0 km/h / 3.6 m/s - N/A   Clear
10:15 PM 3.0 °C -0.7 °C -5.0 °C 56% 1021.6 hPa 16.1 km SW 14.8 km/h / 4.1 m/s - N/A   Clear
10:35 PM 3.0 °C -0.7 °C -5.0 °C 56% 1021.6 hPa 16.1 km SW 14.8 km/h / 4.1 m/s - N/A   Clear
10:55 PM 2.0 °C - -5.0 °C 60% 1021.6 hPa 16.1 km Calm Calm - N/A   Clear
11:15 PM 2.0 °C - -5.0 °C 60% 1021.2 hPa 16.1 km Calm Calm - N/A   Clear
11:35 PM 0.0 °C -4.0 °C -5.0 °C 69% 1021.6 hPa 16.1 km East 13.0 km/h / 3.6 m/s - N/A   Clear
11:55 PM 0.0 °C -1.8 °C -5.0 °C 69% 1021.9 hPa 16.1 km NE 5.6 km/h / 1.5 m/s - N/A   Clear